Time;durP1;ratioP1;P1;durP2;ratioP2;P2;SDS_P1;SDS_P2;PMS_P1;PMS_P2;Temp;Humidity;BMP_temperature;BMP_pressure;BME280_temperature;BME280_humidity;BME280_pressure;Samples;Min_cycle;Max_cycle;Signal;HPM_P1;HPM_P2
2021/06/09 14:01:25;;;;;;;3.97;3.67;;;26.10;56.90;;;;;;4344507;23;20490;-81
2021/06/09 14:04:13;;;;;;;;;;;;;;;;;;;;;
2021/06/09 14:06:52;;;;;;;4.60;4.20;;;26.10;56.90;;;;;;4927298;29;20437;-80
2021/06/09 14:09:25;;;;;;;4.77;4.30;;;26.10;57.10;;;;;;4975410;28;20418;-80
2021/06/09 14:12:04;;;;;;;4.43;4.03;;;26.10;57.00;;;;;;4944539;29;20410;-80
2021/06/09 14:14:47;;;;;;;4.83;4.37;;;26.20;57.10;;;;;;4961037;29;20450;-81
2021/06/09 14:17:28;;;;;;;;;;;;;;;;;;;;;
2021/06/09 14:20:17;;;;;;;4.80;4.40;;;26.20;57.00;;;;;;4955328;29;20470;-80
2021/06/09 14:22:51;;;;;;;4.80;4.40;;;26.20;57.00;;;;;;4939743;29;20458;-80
2021/06/09 14:25:46;;;;;;;4.30;3.90;;;26.20;56.90;;;;;;4955453;29;20417;-80
2021/06/09 14:28:54;;;;;;;4.00;3.70;;;26.20;57.00;;;;;;4898922;29;20450;-80
2021/06/09 14:31:43;;;;;;;4.73;4.33;;;26.20;57.00;;;;;;4885358;29;20421;-82
2021/06/09 14:34:17;;;;;;;4.90;4.43;;;26.20;56.90;;;;;;4868868;29;20422;-81
2021/06/09 14:37:35;;;;;;;3.97;3.57;;;26.20;57.50;;;;;;4884250;29;20416;-81
2021/06/09 14:43:27;;;;;;;5.80;4.03;;;26.20;56.90;;;;;;4898956;29;20393;-80
2021/06/09 14:59:27;;;;;;;4.53;4.17;;;26.20;56.90;;;;;;4860760;29;20475;-80
2021/06/09 15:02:47;;;;;;;4.50;4.10;;;26.20;56.90;;;;;;4862326;29;20447;-80
2021/06/09 15:05:18;;;;;;;4.23;3.93;;;26.20;56.90;;;;;;4881303;29;20417;-79
2021/06/09 15:07:44;;;;;;;4.73;4.33;;;26.20;56.90;;;;;;4898890;29;20810;-81
2021/06/09 15:10:26;;;;;;;4.53;4.13;;;26.20;56.90;;;;;;4898216;29;20466;-80
2021/06/09 15:12:54;;;;;;;4.80;4.40;;;26.30;56.90;;;;;;4901995;29;20446;-80
2021/06/09 15:15:42;;;;;;;5.20;3.90;;;26.20;56.80;;;;;;4901513;29;20429;-79
2021/06/09 15:18:08;;;;;;;4.40;4.00;;;26.20;56.70;;;;;;4900724;29;20437;-79
2021/06/09 15:20:47;;;;;;;;;;;;;;;;;;;;;
2021/06/09 15:23:24;;;;;;;3.93;3.63;;;26.30;56.90;;;;;;4901594;29;20173;-80
2021/06/09 15:25:50;;;;;;;3.87;3.67;;;26.30;56.80;;;;;;4901346;29;20421;-80
2021/06/09 15:28:52;;;;;;;5.90;4.33;;;26.20;56.70;;;;;;4902036;29;20442;-79
2021/06/09 15:31:21;;;;;;;3.80;3.50;;;26.30;56.80;;;;;;4916010;28;20416;-79
2021/06/09 15:33:52;;;;;;;4.40;4.00;;;26.30;56.70;;;;;;4977913;29;20514;-79
2021/06/09 15:36:23;;;;;;;4.73;4.20;;;26.30;56.70;;;;;;4978427;28;20410;-79
2021/06/09 15:38:58;;;;;;;4.27;3.90;;;26.30;56.70;;;;;;4977395;28;20409;-79
2021/06/09 15:44:44;;;;;;;4.27;3.87;;;26.40;56.80;;;;;;4961967;28;20445;-80
2021/06/09 15:50:16;;;;;;;;;;;;;;;;;;;;;
2021/06/09 15:53:26;;;;;;;;;;;;;;;;;;;;;
2021/06/09 15:59:16;;;;;;;5.03;4.27;;;26.40;56.80;;;;;;4980085;29;20366;-79
2021/06/09 16:01:53;;;;;;;4.37;3.97;;;26.30;56.70;;;;;;4978741;29;20461;-80
2021/06/09 16:04:46;;;;;;;4.40;3.87;;;26.30;56.70;;;;;;4962959;29;20421;-80
2021/06/09 16:07:13;;;;;;;4.40;4.00;;;26.40;56.80;;;;;;4961668;29;20414;-80
2021/06/09 16:09:39;;;;;;;3.97;3.67;;;26.30;56.70;;;;;;4977607;29;20513;-80
2021/06/09 16:12:12;;;;;;;4.70;4.30;;;26.40;56.80;;;;;;4978058;29;20437;-80
2021/06/09 16:14:44;;;;;;;3.90;3.60;;;26.40;56.70;;;;;;4962036;29;20418;-80
2021/06/09 16:17:15;;;;;;;4.10;3.80;;;26.40;56.70;;;;;;4978051;29;20423;-80
2021/06/09 16:19:51;;;;;;;3.77;3.47;;;26.30;56.70;;;;;;4961032;29;20430;-79
2021/06/09 16:22:20;;;;;;;3.90;3.60;;;26.40;56.70;;;;;;4959177;29;20450;-79
2021/06/09 16:24:56;;;;;;;4.07;3.77;;;26.40;56.80;;;;;;4958890;29;20466;-79
2021/06/09 16:34:27;;;;;;;3.60;3.30;;;26.40;56.70;;;;;;4899793;29;20515;-79
2021/06/09 16:36:53;;;;;;;4.33;3.93;;;26.40;56.80;;;;;;4883536;29;20417;-79
2021/06/09 16:39:19;;;;;;;4.20;3.90;;;26.40;56.80;;;;;;4882717;29;20951;-79
2021/06/09 16:41:54;;;;;;;4.60;4.20;;;26.40;56.70;;;;;;4898478;29;20209;-78
2021/06/09 16:44:19;;;;;;;3.93;3.63;;;26.40;56.70;;;;;;4882418;29;20252;-79
2021/06/09 16:46:46;;;;;;;4.10;3.80;;;26.40;56.70;;;;;;4883197;29;20429;-79
2021/06/09 16:49:24;;;;;;;3.70;3.40;;;26.40;56.70;;;;;;4882411;29;20189;-80
2021/06/09 16:51:52;;;;;;;3.93;3.63;;;26.40;56.70;;;;;;4898743;29;20426;-80
2021/06/09 16:59:30;;;;;;;4.57;4.03;;;26.40;56.60;;;;;;4898123;29;20443;-82
2021/06/09 17:02:06;;;;;;;4.83;4.33;;;26.40;56.60;;;;;;4882977;29;20491;-80
2021/06/09 17:04:32;;;;;;;4.13;3.73;;;26.40;56.70;;;;;;4898346;29;20441;-80
2021/06/09 17:07:03;;;;;;;4.20;3.70;;;26.40;56.60;;;;;;4927038;29;20422;-79
2021/06/09 17:09:29;;;;;;;3.90;3.60;;;26.40;56.60;;;;;;4975043;29;20166;-80
2021/06/09 17:12:03;;;;;;;3.93;3.60;;;26.40;56.60;;;;;;4974184;28;20530;-79
2021/06/09 17:14:35;;;;;;;4.40;4.00;;;26.40;56.60;;;;;;4975179;28;20398;-80
2021/06/09 17:17:18;;;;;;;4.30;4.00;;;26.40;56.70;;;;;;4975957;28;20434;-80
2021/06/09 17:19:55;;;;;;;4.10;3.80;;;26.40;56.60;;;;;;4959660;29;20422;-79
2021/06/09 17:22:24;;;;;;;4.10;3.70;;;26.40;56.60;;;;;;4975697;28;20468;-79
2021/06/09 17:25:09;;;;;;;4.50;4.20;;;26.40;56.60;;;;;;4975916;28;20468;-79
2021/06/09 17:27:41;;;;;;;4.43;4.03;;;26.50;56.70;;;;;;4974001;28;20461;-80
2021/06/09 17:30:08;;;;;;;4.40;4.10;;;26.40;56.60;;;;;;4973926;28;20492;-79
2021/06/09 17:32:39;;;;;;;4.00;3.70;;;26.40;56.60;;;;;;4974041;28;20437;-79
2021/06/09 17:35:06;;;;;;;4.00;3.70;;;26.40;56.60;;;;;;4974898;28;20402;-80
2021/06/09 17:37:32;;;;;;;4.60;4.17;;;26.40;57.10;;;;;;4972960;28;20448;-79
2021/06/09 17:40:00;;;;;;;3.67;3.37;;;26.40;56.60;;;;;;4971167;29;20422;-79
2021/06/09 17:42:26;;;;;;;4.40;4.10;;;26.40;56.60;;;;;;4973172;28;20230;-81
2021/06/09 17:45:00;;;;;;;4.97;4.57;;;26.40;56.70;;;;;;4973808;29;20409;-81
2021/06/09 17:47:25;;;;;;;3.83;3.53;;;26.40;56.60;;;;;;4974489;28;20398;-80
2021/06/09 17:50:02;;;;;;;4.30;4.00;;;26.40;56.60;;;;;;4972473;28;20418;-80
2021/06/09 17:52:28;;;;;;;4.37;4.07;;;26.40;56.60;;;;;;4972701;28;20194;-81
2021/06/09 17:55:03;;;;;;;5.00;4.60;;;26.40;56.60;;;;;;4972146;28;20446;-81
2021/06/09 17:57:34;;;;;;;4.53;4.13;;;26.40;56.60;;;;;;4973131;28;20170;-81
2021/06/09 18:00:06;;;;;;;5.10;4.60;;;26.40;56.60;;;;;;4971916;28;20532;-81
2021/06/09 18:12:08;;;;;;;5.10;4.70;;;26.40;56.70;;;;;;4971627;29;20391;-81
2021/06/09 18:14:37;;;;;;;4.70;4.30;;;26.40;56.70;;;;;;4971881;28;20398;-80
2021/06/09 18:20:32;;;;;;;4.70;4.37;;;26.40;56.70;;;;;;4972634;29;20385;-79
2021/06/09 18:23:03;;;;;;;4.30;3.90;;;26.30;56.70;;;;;;4972921;29;20465;-79
2021/06/09 18:25:40;;;;;;;5.07;4.67;;;26.40;56.80;;;;;;4973013;29;20495;-79
2021/06/09 18:28:08;;;;;;;4.00;3.70;;;26.40;56.80;;;;;;4972637;28;20796;-79
2021/06/09 18:30:52;;;;;;;5.37;4.90;;;26.40;56.80;;;;;;4974593;28;20429;-79
2021/06/09 18:33:37;;;;;;;4.73;4.33;;;26.40;56.70;;;;;;4977498;28;20382;-80
2021/06/09 18:36:22;;;;;;;4.90;4.50;;;26.40;56.70;;;;;;4977744;29;20414;-80
2021/06/09 18:38:51;;;;;;;4.70;4.30;;;26.40;56.80;;;;;;4977594;29;20434;-79
2021/06/09 18:41:41;;;;;;;;;;;;;;;;;;;;;
2021/06/09 18:44:27;;;;;;;5.43;4.50;;;26.40;56.70;;;;;;4976654;29;20422;-80
2021/06/09 18:46:55;;;;;;;4.53;4.13;;;26.40;56.70;;;;;;4971445;28;20418;-80
2021/06/09 18:49:21;;;;;;;4.40;4.00;;;26.40;56.70;;;;;;4971305;28;20418;-79
2021/06/09 18:51:47;;;;;;;4.40;4.10;;;26.40;56.70;;;;;;4971101;28;20508;-80
2021/06/09 18:54:13;;;;;;;4.27;3.97;;;26.40;56.70;;;;;;4970980;28;20418;-81
2021/06/09 18:57:22;;;;;;;;;;;;;;;;;;;;;
2021/06/09 18:59:51;;;;;;;4.53;4.13;;;26.40;56.60;;;;;;4931664;29;20459;-80
2021/06/09 19:02:20;;;;;;;4.80;4.40;;;26.40;56.80;;;;;;4932161;29;20466;-80
2021/06/09 19:04:56;;;;;;;4.70;4.20;;;26.40;56.70;;;;;;4919561;29;20423;-81
2021/06/09 19:07:35;;;;;;;5.90;4.40;;;26.40;56.70;;;;;;4920359;29;20415;-81
2021/06/09 19:10:06;;;;;;;4.67;4.27;;;26.40;56.70;;;;;;4920233;29;20762;-81
2021/06/09 19:12:52;;;;;;;4.80;4.40;;;26.40;56.70;;;;;;4918820;29;20415;-85
2021/06/09 19:15:24;;;;;;;4.53;4.10;;;26.40;56.70;;;;;;4902950;29;20431;-81
2021/06/09 19:17:55;;;;;;;5.50;4.30;;;26.40;56.70;;;;;;4918211;29;20436;-80
2021/06/09 19:20:41;;;;;;;4.40;4.10;;;26.40;56.80;;;;;;4937843;29;20442;-80
2021/06/09 19:23:22;;;;;;;4.80;4.40;;;26.40;56.70;;;;;;4923438;29;20446;-79
2021/06/09 19:25:50;;;;;;;4.80;4.00;;;26.40;56.70;;;;;;4938258;29;20400;-79
2021/06/09 19:28:24;;;;;;;4.83;4.43;;;26.40;56.80;;;;;;4923465;29;20396;-80
2021/06/09 19:31:08;;;;;;;4.93;4.53;;;26.40;56.80;;;;;;4923617;29;20411;-79
2021/06/09 19:33:42;;;;;;;6.50;4.83;;;26.40;56.80;;;;;;4939139;29;20430;-80
2021/06/09 19:36:09;;;;;;;5.83;4.30;;;26.40;56.90;;;;;;4956151;29;20405;-80
2021/06/09 19:38:45;;;;;;;5.00;4.60;;;26.40;56.80;;;;;;4980084;28;20421;-87
2021/06/09 19:41:29;;;;;;;5.07;4.57;;;26.50;56.90;;;;;;4980965;29;20453;-82
2021/06/09 19:43:58;;;;;;;4.60;4.20;;;26.40;56.90;;;;;;4980985;29;20418;-80
2021/06/09 19:46:26;;;;;;;6.87;4.43;;;26.40;56.80;;;;;;4981053;29;20426;-81
2021/06/09 19:48:55;;;;;;;4.33;4.03;;;26.40;56.80;;;;;;4981734;29;20421;-81
2021/06/09 19:51:27;;;;;;;4.80;3.93;;;26.40;56.80;;;;;;4979494;29;20421;-81
2021/06/09 19:53:55;;;;;;;9.27;5.17;;;26.40;56.80;;;;;;4979860;29;20410;-80
2021/06/09 19:56:21;;;;;;;4.50;4.20;;;26.40;56.80;;;;;;4980585;28;20406;-80
2021/06/09 19:58:47;;;;;;;5.53;4.50;;;26.50;56.80;;;;;;4975573;29;20425;-80
2021/06/09 20:01:16;;;;;;;5.30;4.80;;;26.50;56.80;;;;;;4974157;29;20477;-80
2021/06/09 20:03:42;;;;;;;4.40;4.07;;;26.50;56.80;;;;;;4976246;28;20489;-81
2021/06/09 20:06:15;;;;;;;5.00;4.60;;;26.50;56.80;;;;;;4974427;28;20422;-80
2021/06/09 20:08:41;;;;;;;4.37;3.90;;;26.50;56.80;;;;;;4960521;29;20410;-80
2021/06/09 20:11:10;;;;;;;4.47;4.07;;;26.50;56.80;;;;;;4974772;29;20418;-79
2021/06/09 20:13:38;;;;;;;5.27;4.77;;;26.40;56.70;;;;;;4975627;29;20457;-79
2021/06/09 20:16:07;;;;;;;4.60;4.20;;;26.40;56.70;;;;;;4973233;29;20402;-79
2021/06/09 20:18:53;;;;;;;5.67;4.30;;;26.40;56.70;;;;;;4976868;28;20765;-80
2021/06/09 20:21:19;;;;;;;7.07;4.87;;;26.50;56.70;;;;;;4977227;29;20457;-79
2021/06/09 20:23:49;;;;;;;4.50;4.10;;;26.40;56.80;;;;;;4980109;28;20418;-79
2021/06/09 20:29:02;;;;;;;4.40;4.00;;;26.40;56.70;;;;;;4980180;29;20429;-79
2021/06/09 20:31:28;;;;;;;4.73;4.33;;;26.40;56.70;;;;;;4978572;28;20420;-79
2021/06/09 20:33:54;;;;;;;4.83;4.17;;;26.40;56.70;;;;;;4979707;29;20422;-79
2021/06/09 20:36:20;;;;;;;5.47;3.90;;;26.40;56.70;;;;;;4980690;28;20174;-79
2021/06/09 20:38:50;;;;;;;4.60;4.10;;;26.30;56.70;;;;;;4979770;28;20430;-79
2021/06/09 20:41:16;;;;;;;4.50;4.07;;;26.40;56.70;;;;;;4979994;29;20461;-79
2021/06/09 20:43:45;;;;;;;4.73;4.33;;;26.40;56.80;;;;;;4980913;28;20840;-80
2021/06/09 20:46:19;;;;;;;3.80;3.50;;;26.40;56.70;;;;;;4980088;29;20178;-79
2021/06/09 20:48:51;;;;;;;4.70;4.30;;;26.30;56.70;;;;;;4987545;28;20418;-79
2021/06/09 20:51:26;;;;;;;5.60;4.33;;;26.40;56.80;;;;;;4963867;29;20425;-79
2021/06/09 20:54:12;;;;;;;4.17;3.77;;;26.40;56.80;;;;;;4979602;29;20438;-79
2021/06/09 20:56:59;;;;;;;5.30;4.80;;;26.30;56.70;;;;;;4978777;28;20422;-79
2021/06/09 20:59:33;;;;;;;5.20;4.80;;;26.40;56.80;;;;;;4978344;29;20410;-79
2021/06/09 21:02:10;;;;;;;4.80;4.40;;;26.30;56.70;;;;;;4961135;28;20482;-78
2021/06/09 21:05:10;;;;;;;4.23;3.93;;;26.30;56.80;;;;;;4979169;28;20437;-79
2021/06/09 21:07:39;;;;;;;3.93;3.63;;;26.30;56.80;;;;;;4979343;28;20437;-79
2021/06/09 21:10:05;;;;;;;4.20;3.80;;;26.30;56.80;;;;;;4978937;29;20410;-79
2021/06/09 21:12:39;;;;;;;4.43;4.07;;;26.30;56.80;;;;;;4978193;29;20422;-81
2021/06/09 21:15:17;;;;;;;5.00;4.50;;;26.30;56.80;;;;;;4978741;28;20422;-80
2021/06/09 21:18:07;;;;;;;4.30;3.90;;;26.30;56.80;;;;;;4976970;28;20405;-81
2021/06/09 21:20:38;;;;;;;6.93;4.60;;;26.30;56.80;;;;;;4979211;28;20418;-81
2021/06/09 21:23:07;;;;;;;4.40;4.00;;;26.30;57.40;;;;;;4979053;28;20446;-80
2021/06/09 21:25:37;;;;;;;4.10;3.80;;;26.20;56.70;;;;;;4979044;29;20406;-80
2021/06/09 21:28:05;;;;;;;4.60;4.20;;;26.30;56.80;;;;;;4979061;29;20458;-80
2021/06/09 21:30:32;;;;;;;4.90;4.50;;;26.30;56.80;;;;;;4979985;28;20434;-80
2021/06/09 21:33:00;;;;;;;4.73;4.33;;;26.30;56.80;;;;;;4980391;28;20422;-80
2021/06/09 21:35:27;;;;;;;4.33;3.93;;;26.30;56.80;;;;;;4979143;29;20839;-80
2021/06/09 21:38:02;;;;;;;4.13;3.83;;;26.30;56.80;;;;;;4979212;28;20429;-80
2021/06/09 21:40:31;;;;;;;4.23;3.87;;;26.30;56.80;;;;;;4979435;29;20445;-80
2021/06/09 21:43:01;;;;;;;3.93;3.63;;;26.30;56.80;;;;;;4977721;28;20473;-80
2021/06/09 21:45:27;;;;;;;4.90;4.37;;;26.30;56.80;;;;;;4978937;28;20418;-80
2021/06/09 21:47:56;;;;;;;4.43;4.03;;;26.30;56.80;;;;;;4978143;28;20432;-80
2021/06/09 21:50:22;;;;;;;4.03;3.73;;;26.30;56.80;;;;;;4977869;28;20473;-80
2021/06/09 21:55:55;;;;;;;4.87;4.20;;;26.20;56.70;;;;;;4963150;28;20437;-80
2021/06/09 21:58:28;;;;;;;3.90;3.60;;;26.30;56.80;;;;;;4978037;28;20430;-80
2021/06/09 22:01:13;;;;;;;4.30;3.90;;;26.30;56.80;;;;;;4976259;29;20454;-80
2021/06/09 22:03:43;;;;;;;4.60;4.20;;;26.30;56.80;;;;;;4960917;29;20436;-80
2021/06/09 22:06:33;;;;;;;4.07;3.77;;;26.20;56.70;;;;;;4978502;28;20422;-80
2021/06/09 22:09:05;;;;;;;4.67;4.27;;;26.30;56.80;;;;;;4977257;29;20434;-79
2021/06/09 22:11:31;;;;;;;3.97;3.67;;;26.30;56.80;;;;;;4976703;29;20453;-79
2021/06/09 22:14:00;;;;;;;4.07;3.77;;;26.20;56.80;;;;;;4977498;28;20433;-79
2021/06/09 22:16:33;;;;;;;4.80;3.90;;;26.20;56.70;;;;;;4978368;28;20379;-79
2021/06/09 22:19:06;;;;;;;4.20;3.87;;;26.30;56.80;;;;;;4978396;28;20371;-79
2021/06/09 22:21:38;;;;;;;4.00;3.70;;;26.20;56.70;;;;;;4978245;28;20438;-80
2021/06/09 22:24:05;;;;;;;4.30;4.00;;;26.30;56.80;;;;;;4978382;28;20439;-79
2021/06/09 22:26:37;;;;;;;4.00;3.70;;;26.20;56.80;;;;;;4977542;29;20450;-79
2021/06/09 22:32:45;;;;;;;4.07;3.77;;;26.30;56.80;;;;;;4978690;29;20410;-79
2021/06/09 22:35:18;;;;;;;4.17;3.87;;;26.20;56.80;;;;;;4978139;29;20418;-79
2021/06/09 22:37:47;;;;;;;4.63;4.23;;;26.20;56.80;;;;;;4977357;28;20505;-80
2021/06/09 22:40:52;;;;;;;5.90;3.97;;;26.20;56.80;;;;;;4977143;28;20405;-79
2021/06/09 22:43:23;;;;;;;4.00;3.70;;;26.20;56.70;;;;;;4977383;28;20422;-80
2021/06/09 22:45:49;;;;;;;4.03;3.73;;;26.20;56.80;;;;;;4977042;29;20493;-80
2021/06/09 22:48:15;;;;;;;4.60;4.13;;;26.20;56.80;;;;;;4977061;28;20429;-81
2021/06/09 22:50:44;;;;;;;4.47;4.07;;;26.20;56.80;;;;;;4976518;29;20494;-79
2021/06/09 22:53:11;;;;;;;4.23;3.93;;;26.20;56.80;;;;;;4972206;29;20406;-79
2021/06/09 22:55:41;;;;;;;3.90;3.60;;;26.30;56.80;;;;;;4976918;28;20406;-79
2021/06/09 22:58:09;;;;;;;5.53;5.03;;;26.30;56.80;;;;;;4976873;29;20422;-79
2021/06/09 23:00:35;;;;;;;3.87;3.30;;;26.30;56.80;;;;;;4976366;28;20568;-79
2021/06/09 23:03:01;;;;;;;4.10;3.80;;;26.20;56.70;;;;;;4977275;28;20473;-80
2021/06/09 23:08:49;;;;;;;5.27;4.17;;;26.30;56.70;;;;;;4977004;29;20461;-79
2021/06/09 23:11:15;;;;;;;4.30;3.90;;;26.20;56.80;;;;;;4977163;29;20414;-80
2021/06/09 23:13:42;;;;;;;5.10;4.03;;;26.20;56.80;;;;;;4977162;28;20402;-79
2021/06/09 23:16:08;;;;;;;3.93;3.63;;;26.20;56.80;;;;;;4977134;28;20181;-80
2021/06/09 23:18:38;;;;;;;4.07;3.77;;;26.30;56.90;;;;;;4976986;28;20422;-80
2021/06/09 23:21:04;;;;;;;4.50;4.10;;;26.30;56.80;;;;;;4976545;29;20458;-80
2021/06/09 23:23:33;;;;;;;4.13;3.40;;;26.20;56.70;;;;;;4977299;28;20425;-80
2021/06/09 23:25:59;;;;;;;4.00;3.70;;;26.20;56.80;;;;;;4977152;28;20386;-80
2021/06/09 23:28:28;;;;;;;3.60;3.30;;;26.20;56.80;;;;;;4976187;29;20457;-80
2021/06/09 23:30:53;;;;;;;3.50;3.20;;;26.20;56.70;;;;;;4976813;28;20409;-80
2021/06/09 23:33:19;;;;;;;3.90;3.60;;;26.20;56.80;;;;;;4973937;28;20782;-79
2021/06/09 23:35:45;;;;;;;4.50;4.10;;;26.20;56.70;;;;;;4969975;28;20414;-79
2021/06/09 23:38:11;;;;;;;3.97;3.67;;;26.20;56.70;;;;;;4969047;28;20178;-79
2021/06/09 23:40:37;;;;;;;4.00;3.70;;;26.20;56.80;;;;;;4969235;28;20476;-79
2021/06/09 23:43:06;;;;;;;4.27;3.50;;;26.20;56.70;;;;;;4969737;28;20477;-79
2021/06/09 23:45:32;;;;;;;4.40;3.57;;;26.20;56.70;;;;;;4968268;29;20194;-79
2021/06/09 23:47:59;;;;;;;4.30;3.90;;;26.20;56.70;;;;;;4973148;28;20408;-79
2021/06/09 23:50:29;;;;;;;4.30;3.70;;;26.20;56.80;;;;;;4976758;28;20437;-80
2021/06/09 23:52:57;;;;;;;4.40;4.00;;;26.20;56.80;;;;;;4975788;29;20426;-79
2021/06/09 23:55:29;;;;;;;5.10;3.77;;;26.20;56.80;;;;;;4975757;29;20438;-80
2021/06/09 23:57:55;;;;;;;4.50;3.93;;;26.20;56.80;;;;;;4976087;28;20414;-79
